createdAt,value
2019-01-03T08:02:06.755Z,34.10
2019-01-03T08:04:36.750Z,32.60
2019-01-03T08:07:05.064Z,33.10
2019-01-03T08:09:32.659Z,35.30
2019-01-03T08:12:02.580Z,42.30
2019-01-03T08:14:42.136Z,37.10
2019-01-03T08:17:14.801Z,37.20
2019-01-03T08:19:43.773Z,37.00
2019-01-03T08:22:15.803Z,36.70
2019-01-03T08:24:50.014Z,36.80
2019-01-03T08:27:20.062Z,36.90
2019-01-03T08:29:49.175Z,36.00
2019-01-03T08:32:20.084Z,34.90
2019-01-03T08:35:03.591Z,35.10
2019-01-03T08:37:25.925Z,35.20
2019-01-03T08:40:03.089Z,35.20
2019-01-03T08:42:33.043Z,37.10
2019-01-03T08:45:14.449Z,35.00
2019-01-03T08:47:42.136Z,36.40
2019-01-03T08:50:09.204Z,36.70
2019-01-03T08:52:38.753Z,36.50
2019-01-03T08:55:29.797Z,37.00
2019-01-03T08:57:56.141Z,35.10
2019-01-03T09:03:10.884Z,37.80
2019-01-03T09:05:46.289Z,38.10
2019-01-03T09:08:25.734Z,37.70
2019-01-03T09:10:56.637Z,39.40
2019-01-03T09:13:23.456Z,38.10
2019-01-03T09:15:50.636Z,38.20
2019-01-03T09:18:17.992Z,38.00
2019-01-03T09:20:45.568Z,39.80
2019-01-03T09:23:17.922Z,39.20
2019-01-03T09:25:58.834Z,40.20
2019-01-03T09:28:31.900Z,41.30
2019-01-03T09:31:03.750Z,41.40
2019-01-03T09:33:37.685Z,39.10
2019-01-03T09:36:06.954Z,40.90
2019-01-03T09:38:48.371Z,40.10
2019-01-03T09:41:18.601Z,40.70
2019-01-03T09:43:53.203Z,41.70
2019-01-03T09:46:20.495Z,40.90
2019-01-03T09:48:48.406Z,41.80
2019-01-03T09:51:17.501Z,39.90
2019-01-03T09:53:47.015Z,40.60
2019-01-03T09:56:14.639Z,41.70
2019-01-03T09:58:42.495Z,43.70
2019-01-03T10:01:10.393Z,43.50
2019-01-03T10:03:39.942Z,41.60
2019-01-03T10:06:26.455Z,41.40
2019-01-03T10:08:55.478Z,40.70
2019-01-03T10:11:23.990Z,42.40
2019-01-03T10:13:54.060Z,40.50
2019-01-03T10:16:25.015Z,41.10
2019-01-03T10:18:53.347Z,40.90
2019-01-03T10:21:23.932Z,42.20
2019-01-03T10:23:58.546Z,43.50
2019-01-03T10:26:22.962Z,42.90
2019-01-03T10:28:52.485Z,42.20
2019-01-03T10:31:22.479Z,42.10
2019-01-03T10:33:51.310Z,41.20
2019-01-03T10:36:27.561Z,41.90
2019-01-03T10:38:54.182Z,42.70
2019-01-03T10:41:24.228Z,42.50
2019-01-03T10:43:50.813Z,42.60
2019-01-03T10:46:17.907Z,42.30
2019-01-03T10:48:47.516Z,41.30
2019-01-03T10:51:17.658Z,41.40
2019-01-03T10:53:47.711Z,42.50
2019-01-03T10:56:14.874Z,42.20
2019-01-03T10:58:42.245Z,41.70
2019-01-03T11:01:11.853Z,41.80
2019-01-03T11:03:39.507Z,41.50
2019-01-03T11:06:19.152Z,41.50
2019-01-03T11:08:49.776Z,41.60
2019-01-03T11:11:16.339Z,41.50
2019-01-03T11:13:44.272Z,42.30
2019-01-03T11:16:17.217Z,42.80
2019-01-03T11:18:44.377Z,42.20
2019-01-03T11:21:14.735Z,42.10
2019-01-03T11:23:45.121Z,42.00
2019-01-03T11:26:24.570Z,41.60
2019-01-03T11:28:51.508Z,41.60
2019-01-03T11:31:19.740Z,42.20
2019-01-03T11:33:46.800Z,42.20
2019-01-03T11:36:21.971Z,42.20
2019-01-03T11:38:48.737Z,42.00
2019-01-03T11:41:21.056Z,41.10
2019-01-03T11:43:53.470Z,39.50
2019-01-03T11:46:41.489Z,40.20
2019-01-03T11:49:12.372Z,40.70
2019-01-03T11:51:42.228Z,41.40
2019-01-03T11:54:12.256Z,40.50
2019-01-03T11:56:46.604Z,39.70
2019-01-03T11:59:27.460Z,41.80
2019-01-03T12:01:58.312Z,41.10
2019-01-03T12:04:29.445Z,41.90
2019-01-03T12:07:06.165Z,40.60
2019-01-03T12:09:36.041Z,41.40
2019-01-03T12:12:14.882Z,40.20
2019-01-03T12:14:40.406Z,40.40
2019-01-03T12:17:12.554Z,42.50
2019-01-03T12:19:41.131Z,41.50
2019-01-03T12:22:08.202Z,41.50
2019-01-03T12:24:36.735Z,42.10
2019-01-03T12:29:50.332Z,42.20
2019-01-03T12:32:21.302Z,42.60
2019-01-03T12:34:51.171Z,43.30
2019-01-03T12:37:22.050Z,43.60
2019-01-03T12:39:53.326Z,42.40
2019-01-03T12:42:31.342Z,42.50
2019-01-03T12:45:02.201Z,43.30
2019-01-03T12:50:18.105Z,43.30
2019-01-03T12:55:35.084Z,43.40
2019-01-03T12:58:02.211Z,44.00
2019-01-03T13:00:31.470Z,43.10
2019-01-03T13:03:04.638Z,44.40
2019-01-03T13:05:33.298Z,44.50
2019-01-03T13:08:02.588Z,43.90
2019-01-03T13:10:31.346Z,44.70
2019-01-03T13:13:01.522Z,44.30
2019-01-03T13:15:32.052Z,44.60
2019-01-03T13:18:02.900Z,45.00
2019-01-03T13:20:31.697Z,44.70
2019-01-03T13:22:58.865Z,45.70
2019-01-03T13:25:29.257Z,44.70
2019-01-03T13:28:04.030Z,45.30
2019-01-03T13:30:37.840Z,44.40
2019-01-03T13:33:14.687Z,45.40
2019-01-03T13:35:44.933Z,45.60
2019-01-03T13:38:13.580Z,45.80
2019-01-03T13:43:30.705Z,45.60
2019-01-03T13:46:00.468Z,46.50
2019-01-03T13:48:31.796Z,46.60
2019-01-03T13:51:05.448Z,46.50
2019-01-03T13:53:35.572Z,46.70
2019-01-03T13:56:11.553Z,46.50
2019-01-03T13:58:44.782Z,47.70
2019-01-03T14:01:14.596Z,47.10
2019-01-03T14:03:41.219Z,47.30
2019-01-03T14:06:13.343Z,47.20
2019-01-03T14:08:42.432Z,48.20
2019-01-03T14:11:11.454Z,47.70
2019-01-03T14:13:51.618Z,48.80
2019-01-03T14:16:21.932Z,48.70
2019-01-03T14:18:49.030Z,51.70
2019-01-03T14:21:16.924Z,52.40
2019-01-03T14:23:47.125Z,51.80
2019-01-03T14:29:03.481Z,51.60
2019-01-03T14:31:31.043Z,50.30
2019-01-03T14:34:00.117Z,50.70
2019-01-03T14:36:28.437Z,51.20
2019-01-03T14:38:59.660Z,50.80
2019-01-03T14:41:32.947Z,51.40
2019-01-03T14:44:05.297Z,51.80
2019-01-03T14:46:39.030Z,51.70
2019-01-03T14:49:06.139Z,52.40
2019-01-03T14:51:35.327Z,54.40
2019-01-03T14:54:05.178Z,54.80
2019-01-03T14:56:35.448Z,54.00
2019-01-03T14:59:04.351Z,54.70
2019-01-03T15:01:33.875Z,53.70
2019-01-03T15:04:03.454Z,53.20
2019-01-03T15:06:35.243Z,53.30
2019-01-03T15:09:03.910Z,53.60
2019-01-03T15:11:31.437Z,52.80
2019-01-03T15:13:59.025Z,52.50
2019-01-03T15:16:34.980Z,51.70
2019-01-03T15:19:06.363Z,52.10
2019-01-03T15:21:36.014Z,52.50
2019-01-03T15:24:07.176Z,52.20
2019-01-03T15:26:38.008Z,51.80
2019-01-03T15:29:11.227Z,51.90
2019-01-03T15:31:40.795Z,51.60
2019-01-03T15:34:08.071Z,51.70
2019-01-03T15:36:36.426Z,50.80
2019-01-03T15:39:08.173Z,51.10
2019-01-03T15:41:36.951Z,51.00
2019-01-03T15:44:08.038Z,49.70
2019-01-03T15:46:34.748Z,50.50
2019-01-03T15:49:06.227Z,50.40
2019-01-03T15:51:40.602Z,52.10
2019-01-03T15:54:24.176Z,51.90
2019-01-03T15:56:55.454Z,51.60
2019-01-03T15:59:27.792Z,51.10
2019-01-03T16:01:56.236Z,52.70
2019-01-03T16:04:23.759Z,52.60
2019-01-03T16:06:54.015Z,52.80
2019-01-03T16:12:09.532Z,53.20
2019-01-03T16:14:38.494Z,52.70
2019-01-03T16:17:10.177Z,54.20
2019-01-03T16:19:46.837Z,55.60
2019-01-03T16:22:17.459Z,56.40
2019-01-03T16:24:49.681Z,56.80
2019-01-03T16:30:06.869Z,57.50
2019-01-03T16:32:38.506Z,58.20
2019-01-03T16:35:10.262Z,58.80
2019-01-03T16:37:39.706Z,58.60
2019-01-03T16:40:08.827Z,57.90
2019-01-03T16:42:37.151Z,59.80
2019-01-03T16:45:07.352Z,60.20
2019-01-03T16:50:25.034Z,61.60
2019-01-03T16:52:56.313Z,62.50
2019-01-03T16:55:25.150Z,60.80
2019-01-03T16:57:55.554Z,60.90
2019-01-03T17:00:25.761Z,60.80
2019-01-03T17:02:52.113Z,60.60
2019-01-03T17:05:21.612Z,60.90
2019-01-03T17:07:50.967Z,61.70
2019-01-03T17:10:20.193Z,63.80
2019-01-03T17:12:49.836Z,65.50
2019-01-03T17:15:19.862Z,67.40
2019-01-03T17:17:53.674Z,67.50
2019-01-03T17:20:21.207Z,65.40
2019-01-03T17:22:51.396Z,65.90
2019-01-03T17:25:20.833Z,67.20
2019-01-03T17:27:53.511Z,67.90
2019-01-03T17:30:23.131Z,67.10
2019-01-03T17:32:59.570Z,72.80
2019-01-03T17:35:30.408Z,75.10
2019-01-03T17:37:58.707Z,80.50
2019-01-03T17:40:27.071Z,80.50
2019-01-03T17:43:08.060Z,82.10
2019-01-03T17:45:39.386Z,79.10
2019-01-03T17:48:11.456Z,76.80
2019-01-03T17:53:26.106Z,78.80
2019-01-03T17:55:54.260Z,78.70
2019-01-03T17:58:22.848Z,76.10
2019-01-03T18:06:25.246Z,79.10
2019-01-03T18:08:52.306Z,79.90
2019-01-03T18:11:19.413Z,78.00
2019-01-03T18:13:52.342Z,77.50
2019-01-03T18:16:21.663Z,80.70
2019-01-03T18:18:53.104Z,83.20
2019-01-03T18:21:20.322Z,88.20
2019-01-03T18:23:49.745Z,94.70
2019-01-03T18:26:16.445Z,98.80
2019-01-03T18:28:44.706Z,99.90
2019-01-03T18:31:15.250Z,99.90
2019-01-03T18:33:44.667Z,99.90
2019-01-03T18:36:11.798Z,99.90
2019-01-03T18:38:41.557Z,99.90
2019-01-03T18:41:09.050Z,99.90
2019-01-03T18:46:22.853Z,99.90
2019-01-03T18:54:28.464Z,99.90
2019-01-03T18:56:55.547Z,99.90
2019-01-03T18:59:26.354Z,99.90
2019-01-03T19:02:00.090Z,99.90
2019-01-03T19:04:34.080Z,99.90
2019-01-03T19:09:44.954Z,99.90
2019-01-03T19:12:13.925Z,99.90
2019-01-03T19:14:44.443Z,99.90
2019-01-03T19:20:04.248Z,99.90
2019-01-03T19:22:40.818Z,99.90
2019-01-03T19:25:11.210Z,99.90
2019-01-03T19:27:43.262Z,99.90
2019-01-03T19:30:23.694Z,99.70
2019-01-03T19:32:44.720Z,99.10
2019-01-03T19:35:13.879Z,99.40
2019-01-03T19:37:44.218Z,99.90
2019-01-03T19:40:14.276Z,99.90
2019-01-03T19:42:44.909Z,99.50
2019-01-03T19:45:12.860Z,99.90
2019-01-03T19:47:40.924Z,99.40
2019-01-03T19:50:08.737Z,97.00
2019-01-03T19:52:44.339Z,97.90
2019-01-03T19:55:11.992Z,97.70
2019-01-03T19:57:41.518Z,98.60
2019-01-03T20:00:09.746Z,99.50
2019-01-03T20:02:38.870Z,97.30
2019-01-03T20:05:15.965Z,96.60
2019-01-03T20:07:40.719Z,97.70
2019-01-03T20:10:10.497Z,99.30
2019-01-03T20:12:43.236Z,97.90
2019-01-03T20:15:16.809Z,97.40
2019-01-03T20:17:45.972Z,96.30
2019-01-03T20:20:17.981Z,94.90
2019-01-03T20:22:55.227Z,96.20
2019-01-03T20:25:27.039Z,96.00
2019-01-03T20:27:56.053Z,96.10
2019-01-03T20:30:27.604Z,96.00
2019-01-03T20:32:57.003Z,95.60
2019-01-03T20:35:25.713Z,96.90
2019-01-03T20:37:55.895Z,96.40
2019-01-03T20:40:25.729Z,97.60
2019-01-03T20:42:54.933Z,97.90
2019-01-03T20:45:21.771Z,99.30
2019-01-03T20:47:52.008Z,99.90
2019-01-03T20:50:22.322Z,99.10
2019-01-03T20:52:55.783Z,97.80
2019-01-03T20:55:26.149Z,97.30
2019-01-03T20:57:55.327Z,98.50
2019-01-03T21:00:21.915Z,99.00
2019-01-03T21:02:51.559Z,97.90
2019-01-03T21:05:21.324Z,96.20
2019-01-03T21:07:51.844Z,96.80
2019-01-03T21:10:24.880Z,98.30
2019-01-03T21:12:51.497Z,98.30
2019-01-03T21:15:22.146Z,98.40
2019-01-03T21:17:53.482Z,98.20
2019-01-03T21:20:20.327Z,95.70
2019-01-03T21:23:03.541Z,96.20
2019-01-03T21:25:32.241Z,94.60
2019-01-03T21:28:02.151Z,95.10
2019-01-03T21:30:35.952Z,95.40
2019-01-03T21:36:07.013Z,94.50
2019-01-03T21:38:34.001Z,95.80
2019-01-03T21:41:04.062Z,94.80
2019-01-03T21:43:33.247Z,93.00
2019-01-03T21:46:02.647Z,93.70
2019-01-03T21:48:32.254Z,93.70
2019-01-03T21:51:01.745Z,92.80
2019-01-03T21:53:30.870Z,93.10
2019-01-03T21:55:59.451Z,91.80
2019-01-03T21:58:30.674Z,91.50
2019-01-03T22:01:02.016Z,91.30
2019-01-03T22:03:29.417Z,91.90
2019-01-03T22:06:00.117Z,91.70
2019-01-03T22:08:29.531Z,95.30
2019-01-03T22:13:45.056Z,94.60
2019-01-03T22:16:16.959Z,94.40
2019-01-03T22:21:30.419Z,91.00
2019-01-03T22:24:06.702Z,92.20
2019-01-03T22:26:31.880Z,92.90
2019-01-03T22:29:04.585Z,92.30
2019-01-03T22:31:35.886Z,92.20
2019-01-03T22:34:05.304Z,94.70
2019-01-03T22:36:34.559Z,95.80
2019-01-03T22:39:02.428Z,96.40
2019-01-03T22:41:31.563Z,97.70
2019-01-03T22:44:01.390Z,96.80
2019-01-03T22:46:29.065Z,97.90
2019-01-03T22:48:59.839Z,99.00
2019-01-03T22:51:31.297Z,97.10
2019-01-03T22:54:00.996Z,98.80
2019-01-03T22:56:28.340Z,97.60
2019-01-03T22:58:59.059Z,97.50
2019-01-03T23:01:30.983Z,96.20
2019-01-03T23:04:00.644Z,94.90
2019-01-03T23:06:28.276Z,94.70
2019-01-03T23:08:55.779Z,95.20
2019-01-03T23:11:26.897Z,95.70
2019-01-03T23:13:55.793Z,97.00
2019-01-03T23:16:26.764Z,98.20
2019-01-03T23:18:54.838Z,97.00
2019-01-03T23:21:22.116Z,96.80
2019-01-03T23:26:36.265Z,96.60
2019-01-03T23:29:05.574Z,99.50
2019-01-03T23:31:42.830Z,98.80
2019-01-03T23:34:14.259Z,99.90
2019-01-03T23:36:44.799Z,99.90
2019-01-03T23:39:14.382Z,99.90
2019-01-03T23:41:42.216Z,99.90
2019-01-03T23:44:29.513Z,97.20
2019-01-03T23:46:56.103Z,95.40
2019-01-03T23:49:24.081Z,96.50
2019-01-03T23:51:53.153Z,95.60
2019-01-03T23:54:23.001Z,94.80
2019-01-03T23:56:52.969Z,95.00
2019-01-03T23:59:23.186Z,96.20
